sensor_id;sensor_type;location;lat;lon;timestamp;pressure;altitude;pressure_sealevel;temperature;humidity
60874;BME280;46715;40.642;-7.920;2023-12-20T00:01:48;76002.78;;;-146.45;79.02
60874;BME280;46715;40.642;-7.920;2023-12-20T00:03:49;76002.78;;;-146.45;79.29
60874;BME280;46715;40.642;-7.920;2023-12-20T00:05:50;76004.78;;;-146.45;79.93
60874;BME280;46715;40.642;-7.920;2023-12-20T00:07:51;76012.75;;;-146.45;80.85
60874;BME280;46715;40.642;-7.920;2023-12-20T00:09:52;76014.72;;;-146.45;80.83
60874;BME280;46715;40.642;-7.920;2023-12-20T00:11:52;76014.72;;;-146.45;81.88
60874;BME280;46715;40.642;-7.920;2023-12-20T00:13:53;76014.72;;;-146.45;81.34
60874;BME280;46715;40.642;-7.920;2023-12-20T00:15:54;76012.75;;;-146.45;81.40
60874;BME280;46715;40.642;-7.920;2023-12-20T00:17:55;76012.75;;;-146.45;81.32
60874;BME280;46715;40.642;-7.920;2023-12-20T00:19:55;76014.72;;;-146.45;81.09
60874;BME280;46715;40.642;-7.920;2023-12-20T00:21:56;76010.75;;;-146.45;81.03
60874;BME280;46715;40.642;-7.920;2023-12-20T00:23:57;76010.75;;;-146.45;81.23
60874;BME280;46715;40.642;-7.920;2023-12-20T00:25:58;76014.72;;;-146.45;81.46
60874;BME280;46715;40.642;-7.920;2023-12-20T00:27:58;76016.72;;;-146.45;82.21
60874;BME280;46715;40.642;-7.920;2023-12-20T00:29:59;76012.75;;;-146.45;81.82
60874;BME280;46715;40.642;-7.920;2023-12-20T00:32:00;76012.75;;;-146.45;81.54
60874;BME280;46715;40.642;-7.920;2023-12-20T00:34:01;76010.75;;;-146.45;81.46
60874;BME280;46715;40.642;-7.920;2023-12-20T00:36:02;76010.75;;;-146.45;80.88
60874;BME280;46715;40.642;-7.920;2023-12-20T00:38:03;76008.75;;;-146.45;80.83
60874;BME280;46715;40.642;-7.920;2023-12-20T00:40:06;76006.78;;;-146.45;80.71
60874;BME280;46715;40.642;-7.920;2023-12-20T00:42:06;76006.78;;;-146.45;79.99
60874;BME280;46715;40.642;-7.920;2023-12-20T00:44:07;76014.72;;;-146.45;79.26
60874;BME280;46715;40.642;-7.920;2023-12-20T00:46:08;76002.78;;;-146.45;79.81
60874;BME280;46715;40.642;-7.920;2023-12-20T00:48:09;76002.78;;;-146.45;79.63
60874;BME280;46715;40.642;-7.920;2023-12-20T00:50:10;75998.81;;;-146.45;79.11
60874;BME280;46715;40.642;-7.920;2023-12-20T00:52:10;75996.81;;;-146.45;79.08
60874;BME280;46715;40.642;-7.920;2023-12-20T00:54:11;75988.88;;;-146.45;78.95
60874;BME280;46715;40.642;-7.920;2023-12-20T00:56:12;75982.91;;;-146.45;78.84
60874;BME280;46715;40.642;-7.920;2023-12-20T00:58:13;75976.94;;;-146.45;78.77
60874;BME280;46715;40.642;-7.920;2023-12-20T01:00:15;75970.97;;;-146.45;78.52
60874;BME280;46715;40.642;-7.920;2023-12-20T01:02:16;75965.00;;;-146.45;78.57
60874;BME280;46715;40.642;-7.920;2023-12-20T01:04:17;75963.00;;;-146.45;78.53
60874;BME280;46715;40.642;-7.920;2023-12-20T01:06:18;75951.06;;;-146.45;78.55
60874;BME280;46715;40.642;-7.920;2023-12-20T01:08:19;75953.06;;;-146.45;78.91
60874;BME280;46715;40.642;-7.920;2023-12-20T01:10:20;75951.06;;;-146.45;78.66
60874;BME280;46715;40.642;-7.920;2023-12-20T01:12:23;75949.09;;;-146.45;78.44
60874;BME280;46715;40.642;-7.920;2023-12-20T01:14:24;75945.09;;;-146.45;78.83
60874;BME280;46715;40.642;-7.920;2023-12-20T01:16:24;75945.09;;;-146.45;78.71
60874;BME280;46715;40.642;-7.920;2023-12-20T01:18:25;75943.13;;;-146.45;79.42
60874;BME280;46715;40.642;-7.920;2023-12-20T01:20:26;75937.16;;;-146.45;79.08
60874;BME280;46715;40.642;-7.920;2023-12-20T01:22:27;75927.19;;;-146.45;79.50
60874;BME280;46715;40.642;-7.920;2023-12-20T01:24:27;75927.19;;;-146.45;79.84
60874;BME280;46715;40.642;-7.920;2023-12-20T01:26:28;75927.19;;;-146.45;80.28
60874;BME280;46715;40.642;-7.920;2023-12-20T01:28:29;75935.16;;;-146.45;80.44
60874;BME280;46715;40.642;-7.920;2023-12-20T01:30:30;75917.25;;;-146.45;79.01
60874;BME280;46715;40.642;-7.920;2023-12-20T01:32:30;75907.31;;;-146.45;78.19
60874;BME280;46715;40.642;-7.920;2023-12-20T01:34:31;75911.28;;;-146.45;77.77
60874;BME280;46715;40.642;-7.920;2023-12-20T01:36:32;75915.25;;;-146.45;78.25
60874;BME280;46715;40.642;-7.920;2023-12-20T01:38:33;75895.38;;;-146.45;77.56
60874;BME280;46715;40.642;-7.920;2023-12-20T01:40:34;75903.31;;;-146.45;77.55
60874;BME280;46715;40.642;-7.920;2023-12-20T01:42:34;75923.22;;;-146.45;78.32
60874;BME280;46715;40.642;-7.920;2023-12-20T01:44:35;75939.13;;;-146.45;78.82
60874;BME280;46715;40.642;-7.920;2023-12-20T01:46:36;75945.09;;;-146.45;79.15
60874;BME280;46715;40.642;-7.920;2023-12-20T01:48:37;75951.06;;;-146.45;79.91
60874;BME280;46715;40.642;-7.920;2023-12-20T01:50:38;75941.13;;;-146.45;79.51
60874;BME280;46715;40.642;-7.920;2023-12-20T01:52:41;75931.19;;;-146.45;79.11
60874;BME280;46715;40.642;-7.920;2023-12-20T01:54:42;75943.13;;;-146.45;79.57
60874;BME280;46715;40.642;-7.920;2023-12-20T01:56:43;75929.19;;;-146.45;78.92
60874;BME280;46715;40.642;-7.920;2023-12-20T01:58:45;75929.19;;;-146.45;78.43
60874;BME280;46715;40.642;-7.920;2023-12-20T02:00:47;75943.13;;;-146.45;79.20
60874;BME280;46715;40.642;-7.920;2023-12-20T02:02:50;75947.09;;;-146.45;79.59
60874;BME280;46715;40.642;-7.920;2023-12-20T02:04:51;75941.13;;;-146.45;79.99
60874;BME280;46715;40.642;-7.920;2023-12-20T02:06:52;75919.25;;;-146.45;79.04
60874;BME280;46715;40.642;-7.920;2023-12-20T02:08:53;75923.22;;;-146.45;78.87
60874;BME280;46715;40.642;-7.920;2023-12-20T02:10:55;75939.13;;;-146.45;79.81
60874;BME280;46715;40.642;-7.920;2023-12-20T02:12:56;75941.13;;;-146.45;80.54
60874;BME280;46715;40.642;-7.920;2023-12-20T02:14:57;75953.06;;;-146.45;81.46
60874;BME280;46715;40.642;-7.920;2023-12-20T02:16:58;75961.03;;;-146.45;83.12
60874;BME280;46715;40.642;-7.920;2023-12-20T02:18:59;75947.09;;;-146.45;83.37
60874;BME280;46715;40.642;-7.920;2023-12-20T02:20:59;75947.09;;;-146.45;83.09
60874;BME280;46715;40.642;-7.920;2023-12-20T02:23:00;75945.09;;;-146.45;82.58
60874;BME280;46715;40.642;-7.920;2023-12-20T02:25:01;75943.13;;;-146.45;83.05
60874;BME280;46715;40.642;-7.920;2023-12-20T02:27:02;75947.09;;;-146.45;83.38
60874;BME280;46715;40.642;-7.920;2023-12-20T02:29:03;75951.06;;;-146.45;84.20
60874;BME280;46715;40.642;-7.920;2023-12-20T02:31:04;75953.06;;;-146.45;84.48
60874;BME280;46715;40.642;-7.920;2023-12-20T02:33:07;75951.06;;;-146.45;85.42
60874;BME280;46715;40.642;-7.920;2023-12-20T02:35:11;75959.03;;;-146.45;86.26
60874;BME280;46715;40.642;-7.920;2023-12-20T02:37:11;75967.00;;;-146.45;88.63
60874;BME280;46715;40.642;-7.920;2023-12-20T02:39:12;75963.00;;;-146.45;87.92
60874;BME280;46715;40.642;-7.920;2023-12-20T02:41:13;75949.09;;;-146.45;88.20
60874;BME280;46715;40.642;-7.920;2023-12-20T02:43:16;75961.03;;;-146.45;89.11
60874;BME280;46715;40.642;-7.920;2023-12-20T02:45:17;75961.03;;;-146.45;88.90
60874;BME280;46715;40.642;-7.920;2023-12-20T02:47:17;75953.06;;;-146.45;89.82
60874;BME280;46715;40.642;-7.920;2023-12-20T02:49:18;75978.91;;;-146.45;90.70
60874;BME280;46715;40.642;-7.920;2023-12-20T02:51:19;75982.91;;;-146.45;91.06
60874;BME280;46715;40.642;-7.920;2023-12-20T02:53:20;75978.91;;;-146.45;91.49
60874;BME280;46715;40.642;-7.920;2023-12-20T02:55:21;75992.84;;;-146.45;92.31
60874;BME280;46715;40.642;-7.920;2023-12-20T02:57:21;76010.75;;;-146.45;93.23
60874;BME280;46715;40.642;-7.920;2023-12-20T02:59:22;76012.75;;;-146.45;93.68
60874;BME280;46715;40.642;-7.920;2023-12-20T03:01:23;76012.75;;;-146.45;93.98
60874;BME280;46715;40.642;-7.920;2023-12-20T03:03:24;76016.72;;;-146.45;94.01
60874;BME280;46715;40.642;-7.920;2023-12-20T03:05:25;76006.78;;;-146.45;94.25
60874;BME280;46715;40.642;-7.920;2023-12-20T03:07:26;76010.75;;;-146.45;94.48
60874;BME280;46715;40.642;-7.920;2023-12-20T03:09:26;76000.81;;;-146.45;94.73
60874;BME280;46715;40.642;-7.920;2023-12-20T03:11:28;75994.84;;;-146.45;95.13
60874;BME280;46715;40.642;-7.920;2023-12-20T03:13:29;75996.81;;;-146.45;95.05
60874;BME280;46715;40.642;-7.920;2023-12-20T03:15:30;75986.88;;;-146.45;95.85
60874;BME280;46715;40.642;-7.920;2023-12-20T03:17:30;75994.84;;;-146.45;95.69
60874;BME280;46715;40.642;-7.920;2023-12-20T03:19:31;75998.81;;;-146.45;96.08
60874;BME280;46715;40.642;-7.920;2023-12-20T03:21:32;75986.88;;;-146.45;95.21
60874;BME280;46715;40.642;-7.920;2023-12-20T03:23:33;75998.81;;;-146.45;95.42
60874;BME280;46715;40.642;-7.920;2023-12-20T03:25:33;75998.81;;;-146.45;95.90
60874;BME280;46715;40.642;-7.920;2023-12-20T03:27:37;75996.81;;;-146.45;95.90
60874;BME280;46715;40.642;-7.920;2023-12-20T03:29:39;75994.84;;;-146.45;96.33
60874;BME280;46715;40.642;-7.920;2023-12-20T03:31:39;75988.88;;;-146.45;96.49
60874;BME280;46715;40.642;-7.920;2023-12-20T03:33:40;75972.97;;;-146.45;96.44
60874;BME280;46715;40.642;-7.920;2023-12-20T03:35:41;75965.00;;;-146.45;96.94
60874;BME280;46715;40.642;-7.920;2023-12-20T03:37:42;75955.06;;;-146.45;97.00
60874;BME280;46715;40.642;-7.920;2023-12-20T03:39:43;75947.09;;;-146.45;96.92
60874;BME280;46715;40.642;-7.920;2023-12-20T03:41:43;75939.13;;;-146.45;96.67
60874;BME280;46715;40.642;-7.920;2023-12-20T03:43:44;75933.16;;;-146.45;96.97
60874;BME280;46715;40.642;-7.920;2023-12-20T03:45:45;75937.16;;;-146.45;96.97
60874;BME280;46715;40.642;-7.920;2023-12-20T03:47:46;75923.22;;;-146.45;97.06
60874;BME280;46715;40.642;-7.920;2023-12-20T03:49:47;75917.25;;;-146.45;96.81
60874;BME280;46715;40.642;-7.920;2023-12-20T03:51:48;75905.31;;;-146.45;96.69
60874;BME280;46715;40.642;-7.920;2023-12-20T03:53:48;75899.34;;;-146.45;96.57
60874;BME280;46715;40.642;-7.920;2023-12-20T03:55:49;75895.38;;;-146.45;96.83
60874;BME280;46715;40.642;-7.920;2023-12-20T03:57:50;75885.44;;;-146.45;96.69
60874;BME280;46715;40.642;-7.920;2023-12-20T03:59:51;75887.41;;;-146.45;96.16
60874;BME280;46715;40.642;-7.920;2023-12-20T04:01:52;75891.41;;;-146.45;96.41
60874;BME280;46715;40.642;-7.920;2023-12-20T04:03:53;75875.47;;;-146.45;96.73
60874;BME280;46715;40.642;-7.920;2023-12-20T04:05:54;75881.44;;;-146.45;96.67
60874;BME280;46715;40.642;-7.920;2023-12-20T04:07:54;75881.44;;;-146.45;96.73
60874;BME280;46715;40.642;-7.920;2023-12-20T04:09:55;75879.47;;;-146.45;96.73
60874;BME280;46715;40.642;-7.920;2023-12-20T04:11:56;75881.44;;;-146.45;96.83
60874;BME280;46715;40.642;-7.920;2023-12-20T04:13:56;75871.50;;;-146.45;96.94
60874;BME280;46715;40.642;-7.920;2023-12-20T04:15:57;75865.53;;;-146.45;96.95
60874;BME280;46715;40.642;-7.920;2023-12-20T04:17:58;75857.56;;;-146.45;97.05
60874;BME280;46715;40.642;-7.920;2023-12-20T04:20:02;75851.59;;;-146.45;96.91
60874;BME280;46715;40.642;-7.920;2023-12-20T04:22:03;75853.59;;;-146.45;96.62
60874;BME280;46715;40.642;-7.920;2023-12-20T04:24:04;75851.59;;;-146.45;96.64
60874;BME280;46715;40.642;-7.920;2023-12-20T04:26:05;75851.59;;;-146.45;96.69
60874;BME280;46715;40.642;-7.920;2023-12-20T04:28:06;75849.63;;;-146.45;96.96
60874;BME280;46715;40.642;-7.920;2023-12-20T04:30:07;75853.59;;;-146.45;96.93
60874;BME280;46715;40.642;-7.920;2023-12-20T04:32:08;75853.59;;;-146.45;97.00
60874;BME280;46715;40.642;-7.920;2023-12-20T04:34:09;75849.63;;;-146.45;97.04
60874;BME280;46715;40.642;-7.920;2023-12-20T04:36:09;75843.66;;;-146.45;97.07
60874;BME280;46715;40.642;-7.920;2023-12-20T04:38:10;75855.59;;;-146.45;96.98
60874;BME280;46715;40.642;-7.920;2023-12-20T04:40:11;75849.63;;;-146.45;97.45
60874;BME280;46715;40.642;-7.920;2023-12-20T04:42:12;75839.69;;;-146.45;97.55
60874;BME280;46715;40.642;-7.920;2023-12-20T04:44:13;75839.69;;;-146.45;97.43
60874;BME280;46715;40.642;-7.920;2023-12-20T04:46:14;75835.69;;;-146.45;97.43
60874;BME280;46715;40.642;-7.920;2023-12-20T04:48:15;75819.78;;;-146.45;97.38
60874;BME280;46715;40.642;-7.920;2023-12-20T04:50:16;75793.94;;;-146.45;95.57
60874;BME280;46715;40.642;-7.920;2023-12-20T04:52:17;75795.91;;;-146.45;94.85
60874;BME280;46715;40.642;-7.920;2023-12-20T04:54:17;75803.88;;;-146.45;94.63
60874;BME280;46715;40.642;-7.920;2023-12-20T04:56:18;75811.81;;;-146.45;93.70
60874;BME280;46715;40.642;-7.920;2023-12-20T04:58:19;75817.78;;;-146.45;93.27
60874;BME280;46715;40.642;-7.920;2023-12-20T05:00:20;75835.69;;;-146.45;94.32
60874;BME280;46715;40.642;-7.920;2023-12-20T05:02:22;75837.69;;;-146.45;94.91
60874;BME280;46715;40.642;-7.920;2023-12-20T05:04:23;75835.69;;;-146.45;95.04
60874;BME280;46715;40.642;-7.920;2023-12-20T05:06:24;75853.59;;;-146.45;95.36
60874;BME280;46715;40.642;-7.920;2023-12-20T05:08:25;75871.50;;;-146.45;96.71
60874;BME280;46715;40.642;-7.920;2023-12-20T05:10:26;75875.47;;;-146.45;97.57
60874;BME280;46715;40.642;-7.920;2023-12-20T05:12:27;75871.50;;;-146.45;97.91
60874;BME280;46715;40.642;-7.920;2023-12-20T05:14:28;75891.41;;;-146.45;98.68
60874;BME280;46715;40.642;-7.920;2023-12-20T05:16:29;75875.47;;;-146.45;98.29
60874;BME280;46715;40.642;-7.920;2023-12-20T05:18:29;75895.38;;;-146.45;98.02
60874;BME280;46715;40.642;-7.920;2023-12-20T05:20:30;75895.38;;;-146.45;98.20
60874;BME280;46715;40.642;-7.920;2023-12-20T05:22:31;75901.34;;;-146.45;98.63
60874;BME280;46715;40.642;-7.920;2023-12-20T05:24:32;75903.31;;;-146.45;98.68
60874;BME280;46715;40.642;-7.920;2023-12-20T05:26:33;75911.28;;;-146.45;98.70
60874;BME280;46715;40.642;-7.920;2023-12-20T05:28:33;75915.25;;;-146.45;98.63
60874;BME280;46715;40.642;-7.920;2023-12-20T05:30:34;75915.25;;;-146.45;98.89
60874;BME280;46715;40.642;-7.920;2023-12-20T05:32:35;75901.34;;;-146.45;98.30
60874;BME280;46715;40.642;-7.920;2023-12-20T05:34:36;75923.22;;;-146.45;98.53
60874;BME280;46715;40.642;-7.920;2023-12-20T05:36:37;75933.16;;;-146.45;98.97
60874;BME280;46715;40.642;-7.920;2023-12-20T05:38:37;75903.31;;;-146.45;98.34
60874;BME280;46715;40.642;-7.920;2023-12-20T05:40:38;75887.41;;;-146.45;97.21
60874;BME280;46715;40.642;-7.920;2023-12-20T05:42:39;75917.25;;;-146.45;97.48
60874;BME280;46715;40.642;-7.920;2023-12-20T05:44:40;75941.13;;;-146.45;97.73
60874;BME280;46715;40.642;-7.920;2023-12-20T05:46:41;75955.06;;;-146.45;98.08
60874;BME280;46715;40.642;-7.920;2023-12-20T05:48:41;75961.03;;;-146.45;99.01
60874;BME280;46715;40.642;-7.920;2023-12-20T05:50:42;75982.91;;;-146.45;99.38
60874;BME280;46715;40.642;-7.920;2023-12-20T05:52:43;75988.88;;;-146.45;99.72
60874;BME280;46715;40.642;-7.920;2023-12-20T05:54:44;75992.84;;;-146.45;100.00
60874;BME280;46715;40.642;-7.920;2023-12-20T05:56:44;75988.88;;;-146.45;100.00
60874;BME280;46715;40.642;-7.920;2023-12-20T05:58:45;75980.91;;;-146.45;100.00
60874;BME280;46715;40.642;-7.920;2023-12-20T06:00:46;75974.94;;;-146.45;100.00
60874;BME280;46715;40.642;-7.920;2023-12-20T06:02:47;75970.97;;;-146.45;100.00
60874;BME280;46715;40.642;-7.920;2023-12-20T06:04:47;75923.22;;;-146.45;99.23
60874;BME280;46715;40.642;-7.920;2023-12-20T06:06:48;75919.25;;;-146.45;98.21
60874;BME280;46715;40.642;-7.920;2023-12-20T06:08:49;75907.31;;;-146.45;97.60
60874;BME280;46715;40.642;-7.920;2023-12-20T06:10:50;75917.25;;;-146.45;97.54
60874;BME280;46715;40.642;-7.920;2023-12-20T06:12:51;75945.09;;;-146.45;97.89
60874;BME280;46715;40.642;-7.920;2023-12-20T06:14:52;75959.03;;;-146.45;98.43
60874;BME280;46715;40.642;-7.920;2023-12-20T06:16:52;75970.97;;;-146.45;98.82
60874;BME280;46715;40.642;-7.920;2023-12-20T06:18:53;75972.97;;;-146.45;99.57
60874;BME280;46715;40.642;-7.920;2023-12-20T06:20:54;75986.88;;;-146.45;99.61
60874;BME280;46715;40.642;-7.920;2023-12-20T06:22:55;76004.78;;;-146.45;100.00
60874;BME280;46715;40.642;-7.920;2023-12-20T06:24:56;76000.81;;;-146.45;100.00
60874;BME280;46715;40.642;-7.920;2023-12-20T06:26:56;76006.78;;;-146.45;100.00
60874;BME280;46715;40.642;-7.920;2023-12-20T06:28:57;76004.78;;;-146.45;100.00
60874;BME280;46715;40.642;-7.920;2023-12-20T06:30:58;76014.72;;;-146.45;100.00
60874;BME280;46715;40.642;-7.920;2023-12-20T06:33:00;76030.66;;;-146.45;100.00
60874;BME280;46715;40.642;-7.920;2023-12-20T06:35:01;76030.66;;;-146.45;100.00
60874;BME280;46715;40.642;-7.920;2023-12-20T06:37:03;76042.56;;;-146.45;100.00
60874;BME280;46715;40.642;-7.920;2023-12-20T06:39:03;76044.56;;;-146.45;100.00
60874;BME280;46715;40.642;-7.920;2023-12-20T06:41:05;76046.56;;;-146.45;100.00
60874;BME280;46715;40.642;-7.920;2023-12-20T06:43:09;76052.53;;;-146.45;100.00
60874;BME280;46715;40.642;-7.920;2023-12-20T06:45:10;76062.47;;;-146.45;100.00
60874;BME280;46715;40.642;-7.920;2023-12-20T06:47:11;76078.38;;;-146.45;100.00
60874;BME280;46715;40.642;-7.920;2023-12-20T06:49:12;76074.41;;;-146.45;100.00
60874;BME280;46715;40.642;-7.920;2023-12-20T06:51:14;76078.38;;;-146.45;100.00
60874;BME280;46715;40.642;-7.920;2023-12-20T06:53:16;76092.31;;;-146.45;100.00
60874;BME280;46715;40.642;-7.920;2023-12-20T06:55:17;76102.25;;;-146.45;100.00
60874;BME280;46715;40.642;-7.920;2023-12-20T06:57:18;76106.25;;;-146.45;100.00
60874;BME280;46715;40.642;-7.920;2023-12-20T06:59:20;76110.22;;;-146.45;100.00
60874;BME280;46715;40.642;-7.920;2023-12-20T07:01:20;76116.19;;;-146.45;100.00
60874;BME280;46715;40.642;-7.920;2023-12-20T07:03:21;76112.22;;;-146.45;100.00
60874;BME280;46715;40.642;-7.920;2023-12-20T07:05:22;76112.22;;;-146.45;100.00
60874;BME280;46715;40.642;-7.920;2023-12-20T07:07:23;76112.22;;;-146.45;100.00
60874;BME280;46715;40.642;-7.920;2023-12-20T07:09:24;76108.22;;;-146.45;100.00
60874;BME280;46715;40.642;-7.920;2023-12-20T07:11:26;76106.25;;;-146.45;100.00
60874;BME280;46715;40.642;-7.920;2023-12-20T07:13:26;76106.25;;;-146.45;100.00
60874;BME280;46715;40.642;-7.920;2023-12-20T07:15:27;76112.22;;;-146.45;100.00
60874;BME280;46715;40.642;-7.920;2023-12-20T07:17:30;76126.13;;;-146.45;100.00
60874;BME280;46715;40.642;-7.920;2023-12-20T07:19:30;76136.06;;;-146.45;100.00
60874;BME280;46715;40.642;-7.920;2023-12-20T07:21:31;76153.97;;;-146.45;100.00
60874;BME280;46715;40.642;-7.920;2023-12-20T07:23:32;76161.94;;;-146.45;100.00
60874;BME280;46715;40.642;-7.920;2023-12-20T07:25:33;76163.94;;;-146.45;100.00
60874;BME280;46715;40.642;-7.920;2023-12-20T07:27:33;76173.88;;;-146.45;100.00
60874;BME280;46715;40.642;-7.920;2023-12-20T07:29:34;76177.84;;;-146.45;100.00
60874;BME280;46715;40.642;-7.920;2023-12-20T07:31:35;76181.84;;;-146.45;100.00
60874;BME280;46715;40.642;-7.920;2023-12-20T07:33:36;76181.84;;;-146.45;100.00
60874;BME280;46715;40.642;-7.920;2023-12-20T07:35:36;76191.78;;;-146.45;100.00
60874;BME280;46715;40.642;-7.920;2023-12-20T07:37:37;76209.69;;;-146.45;100.00
60874;BME280;46715;40.642;-7.920;2023-12-20T07:39:39;76217.63;;;-146.45;100.00
60874;BME280;46715;40.642;-7.920;2023-12-20T07:41:41;76221.63;;;-146.45;100.00
60874;BME280;46715;40.642;-7.920;2023-12-20T07:43:41;76219.63;;;-146.45;100.00
60874;BME280;46715;40.642;-7.920;2023-12-20T07:45:42;76217.63;;;-146.45;100.00
60874;BME280;46715;40.642;-7.920;2023-12-20T07:47:43;76223.59;;;-146.45;100.00
60874;BME280;46715;40.642;-7.920;2023-12-20T07:49:44;76233.56;;;-146.45;100.00
60874;BME280;46715;40.642;-7.920;2023-12-20T07:51:44;76223.59;;;-146.45;100.00
60874;BME280;46715;40.642;-7.920;2023-12-20T07:53:45;76209.69;;;-146.45;100.00
60874;BME280;46715;40.642;-7.920;2023-12-20T07:55:46;76197.75;;;-146.45;100.00
60874;BME280;46715;40.642;-7.920;2023-12-20T07:57:47;76189.78;;;-146.45;100.00
60874;BME280;46715;40.642;-7.920;2023-12-20T07:59:48;76197.75;;;-146.45;100.00
60874;BME280;46715;40.642;-7.920;2023-12-20T08:01:48;76199.75;;;-146.45;100.00
60874;BME280;46715;40.642;-7.920;2023-12-20T08:03:50;76189.78;;;-146.45;100.00
60874;BME280;46715;40.642;-7.920;2023-12-20T08:05:51;76191.78;;;-146.45;100.00
60874;BME280;46715;40.642;-7.920;2023-12-20T08:07:51;76185.81;;;-146.45;100.00
60874;BME280;46715;40.642;-7.920;2023-12-20T08:09:52;76187.81;;;-146.45;100.00
60874;BME280;46715;40.642;-7.920;2023-12-20T08:11:55;76181.84;;;-146.45;100.00
60874;BME280;46715;40.642;-7.920;2023-12-20T08:13:56;76179.84;;;-146.45;100.00
60874;BME280;46715;40.642;-7.920;2023-12-20T08:15:56;76177.84;;;-146.45;100.00
60874;BME280;46715;40.642;-7.920;2023-12-20T08:17:57;76177.84;;;-146.45;100.00
60874;BME280;46715;40.642;-7.920;2023-12-20T08:19:58;76179.84;;;-146.45;100.00
60874;BME280;46715;40.642;-7.920;2023-12-20T08:21:59;76169.91;;;-146.45;100.00
60874;BME280;46715;40.642;-7.920;2023-12-20T08:24:00;76146.03;;;-146.45;100.00
60874;BME280;46715;40.642;-7.920;2023-12-20T08:26:05;76155.97;;;-146.45;100.00
60874;BME280;46715;40.642;-7.920;2023-12-20T08:28:06;76163.94;;;-146.45;100.00
60874;BME280;46715;40.642;-7.920;2023-12-20T08:30:10;76159.94;;;-146.45;100.00
60874;BME280;46715;40.642;-7.920;2023-12-20T08:32:11;76146.03;;;-146.45;100.00
60874;BME280;46715;40.642;-7.920;2023-12-20T08:34:11;76146.03;;;-146.45;100.00
60874;BME280;46715;40.642;-7.920;2023-12-20T08:36:14;76134.09;;;-146.45;100.00
60874;BME280;46715;40.642;-7.920;2023-12-20T08:38:15;76138.06;;;-146.45;100.00
60874;BME280;46715;40.642;-7.920;2023-12-20T08:40:17;76148.00;;;-146.45;100.00
60874;BME280;46715;40.642;-7.920;2023-12-20T08:42:18;76146.03;;;-146.45;100.00
60874;BME280;46715;40.642;-7.920;2023-12-20T08:44:18;76118.19;;;-146.45;100.00
60874;BME280;46715;40.642;-7.920;2023-12-20T08:46:19;76080.38;;;-146.45;100.00
60874;BME280;46715;40.642;-7.920;2023-12-20T08:48:20;76018.72;;;-146.45;100.00
60874;BME280;46715;40.642;-7.920;2023-12-20T08:50:21;75986.88;;;-146.45;100.00
60874;BME280;46715;40.642;-7.920;2023-12-20T08:52:22;75937.16;;;-146.45;98.54
60874;BME280;46715;40.642;-7.920;2023-12-20T08:54:27;75839.69;;;-146.45;95.07
60874;BME280;46715;40.642;-7.920;2023-12-20T08:56:28;75704.41;;;-146.45;89.37
60874;BME280;46715;40.642;-7.920;2023-12-20T08:58:29;75622.84;;;-146.45;85.07
60874;BME280;46715;40.642;-7.920;2023-12-20T09:00:29;75606.94;;;-146.45;83.96
60874;BME280;46715;40.642;-7.920;2023-12-20T09:02:31;75644.75;;;-146.45;85.54
60874;BME280;46715;40.642;-7.920;2023-12-20T09:04:32;75672.59;;;-146.45;88.37
60874;BME280;46715;40.642;-7.920;2023-12-20T09:06:33;75702.41;;;-146.45;89.83
60874;BME280;46715;40.642;-7.920;2023-12-20T09:08:34;75726.28;;;-146.45;90.71
60874;BME280;46715;40.642;-7.920;2023-12-20T09:10:35;75758.13;;;-146.45;91.87
60874;BME280;46715;40.642;-7.920;2023-12-20T09:12:35;75752.16;;;-146.45;92.33
60874;BME280;46715;40.642;-7.920;2023-12-20T09:14:40;75756.13;;;-146.45;92.41
60874;BME280;46715;40.642;-7.920;2023-12-20T09:16:41;75758.13;;;-146.45;93.25
60874;BME280;46715;40.642;-7.920;2023-12-20T09:18:42;75766.06;;;-146.45;94.29
60874;BME280;46715;40.642;-7.920;2023-12-20T09:20:45;75762.09;;;-146.45;93.45
60874;BME280;46715;40.642;-7.920;2023-12-20T09:22:46;75756.13;;;-146.45;93.23
60874;BME280;46715;40.642;-7.920;2023-12-20T09:24:47;75756.13;;;-146.45;93.65
60874;BME280;46715;40.642;-7.920;2023-12-20T09:26:48;75756.13;;;-146.45;93.55
60874;BME280;46715;40.642;-7.920;2023-12-20T09:28:49;75744.19;;;-146.45;94.05
60874;BME280;46715;40.642;-7.920;2023-12-20T09:30:50;75742.22;;;-146.45;93.44
60874;BME280;46715;40.642;-7.920;2023-12-20T09:32:51;75736.25;;;-146.45;93.39
60874;BME280;46715;40.642;-7.920;2023-12-20T09:34:51;75738.22;;;-146.45;93.32
60874;BME280;46715;40.642;-7.920;2023-12-20T09:36:52;75742.22;;;-146.45;93.18
60874;BME280;46715;40.642;-7.920;2023-12-20T09:38:53;75740.22;;;-146.45;93.48
60874;BME280;46715;40.642;-7.920;2023-12-20T09:40:54;75732.25;;;-146.45;93.03
60874;BME280;46715;40.642;-7.920;2023-12-20T09:42:57;75714.34;;;-146.45;91.08
60874;BME280;46715;40.642;-7.920;2023-12-20T09:45:00;75712.38;;;-146.45;91.28
60874;BME280;46715;40.642;-7.920;2023-12-20T09:47:04;75712.38;;;-146.45;89.16
60874;BME280;46715;40.642;-7.920;2023-12-20T09:49:05;75694.47;;;-146.45;88.68
60874;BME280;46715;40.642;-7.920;2023-12-20T09:51:07;75684.53;;;-146.45;87.68
60874;BME280;46715;40.642;-7.920;2023-12-20T09:53:15;75670.59;;;-146.45;86.05
60874;BME280;46715;40.642;-7.920;2023-12-20T09:55:20;75684.53;;;-146.45;87.29
60874;BME280;46715;40.642;-7.920;2023-12-20T09:57:21;75666.63;;;-146.45;87.30
60874;BME280;46715;40.642;-7.920;2023-12-20T09:59:21;75642.75;;;-146.45;84.79
60874;BME280;46715;40.642;-7.920;2023-12-20T10:01:23;75652.69;;;-146.45;86.01
60874;BME280;46715;40.642;-7.920;2023-12-20T10:03:25;75668.59;;;-146.45;87.51
60874;BME280;46715;40.642;-7.920;2023-12-20T10:05:31;75652.69;;;-146.45;87.26
60874;BME280;46715;40.642;-7.920;2023-12-20T10:07:32;75674.56;;;-146.45;87.06
60874;BME280;46715;40.642;-7.920;2023-12-20T10:09:33;75662.63;;;-146.45;86.57
60874;BME280;46715;40.642;-7.920;2023-12-20T10:11:36;75656.66;;;-146.45;86.16
60874;BME280;46715;40.642;-7.920;2023-12-20T10:13:41;75640.75;;;-146.45;85.39
60874;BME280;46715;40.642;-7.920;2023-12-20T10:15:45;75628.81;;;-146.45;81.90